sensor_id;sensor_type;location;lat;lon;timestamp;P1;durP1;ratioP1;P2;durP2;ratioP2
20908;SDS011;10614;53.198;6.570;2023-04-01T00:00:01;4.68;;;2.58;;
20908;SDS011;10614;53.198;6.570;2023-04-01T00:02:05;5.57;;;2.80;;
20908;SDS011;10614;53.198;6.570;2023-04-01T00:04:07;4.47;;;2.58;;
20908;SDS011;10614;53.198;6.570;2023-04-01T00:06:09;4.32;;;2.53;;
20908;SDS011;10614;53.198;6.570;2023-04-01T00:08:14;5.68;;;2.85;;
20908;SDS011;10614;53.198;6.570;2023-04-01T00:10:16;5.13;;;2.70;;
20908;SDS011;10614;53.198;6.570;2023-04-01T00:12:18;4.65;;;2.40;;
20908;SDS011;10614;53.198;6.570;2023-04-01T00:14:21;6.07;;;2.83;;
20908;SDS011;10614;53.198;6.570;2023-04-01T00:16:23;4.60;;;2.60;;
20908;SDS011;10614;53.198;6.570;2023-04-01T00:18:25;4.32;;;2.55;;
20908;SDS011;10614;53.198;6.570;2023-04-01T00:20:27;4.65;;;2.65;;
20908;SDS011;10614;53.198;6.570;2023-04-01T00:22:29;4.32;;;2.40;;
20908;SDS011;10614;53.198;6.570;2023-04-01T00:24:31;5.00;;;2.60;;
20908;SDS011;10614;53.198;6.570;2023-04-01T00:26:33;5.65;;;2.63;;
20908;SDS011;10614;53.198;6.570;2023-04-01T00:28:34;5.35;;;2.83;;
20908;SDS011;10614;53.198;6.570;2023-04-01T00:30:38;5.00;;;2.33;;
20908;SDS011;10614;53.198;6.570;2023-04-01T00:32:40;4.63;;;2.40;;
20908;SDS011;10614;53.198;6.570;2023-04-01T00:34:42;4.53;;;2.60;;
20908;SDS011;10614;53.198;6.570;2023-04-01T00:36:44;4.82;;;2.80;;
20908;SDS011;10614;53.198;6.570;2023-04-01T00:38:46;4.45;;;2.20;;
20908;SDS011;10614;53.198;6.570;2023-04-01T00:40:48;5.47;;;2.65;;
20908;SDS011;10614;53.198;6.570;2023-04-01T00:42:51;7.38;;;2.53;;
20908;SDS011;10614;53.198;6.570;2023-04-01T00:44:54;4.20;;;2.40;;
20908;SDS011;10614;53.198;6.570;2023-04-01T00:46:57;6.03;;;3.30;;
20908;SDS011;10614;53.198;6.570;2023-04-01T00:49:00;4.28;;;2.60;;
20908;SDS011;10614;53.198;6.570;2023-04-01T00:51:02;4.38;;;2.53;;
20908;SDS011;10614;53.198;6.570;2023-04-01T00:53:07;4.90;;;2.50;;
20908;SDS011;10614;53.198;6.570;2023-04-01T00:55:10;4.78;;;2.60;;
20908;SDS011;10614;53.198;6.570;2023-04-01T00:57:14;5.40;;;3.00;;
20908;SDS011;10614;53.198;6.570;2023-04-01T00:59:21;6.03;;;2.63;;
20908;SDS011;10614;53.198;6.570;2023-04-01T01:01:25;4.50;;;2.72;;
20908;SDS011;10614;53.198;6.570;2023-04-01T01:03:30;5.28;;;2.70;;
20908;SDS011;10614;53.198;6.570;2023-04-01T01:05:35;5.28;;;2.67;;
20908;SDS011;10614;53.198;6.570;2023-04-01T01:07:52;4.85;;;2.53;;
20908;SDS011;10614;53.198;6.570;2023-04-01T01:10:05;6.35;;;2.95;;
20908;SDS011;10614;53.198;6.570;2023-04-01T01:12:14;4.78;;;2.60;;
20908;SDS011;10614;53.198;6.570;2023-04-01T01:14:25;4.68;;;2.55;;
20908;SDS011;10614;53.198;6.570;2023-04-01T01:16:36;5.97;;;2.85;;
20908;SDS011;10614;53.198;6.570;2023-04-01T01:18:47;7.63;;;4.05;;
20908;SDS011;10614;53.198;6.570;2023-04-01T01:21:03;5.85;;;3.10;;
20908;SDS011;10614;53.198;6.570;2023-04-01T01:23:53;6.70;;;3.25;;
20908;SDS011;10614;53.198;6.570;2023-04-01T01:29:00;7.80;;;3.65;;
20908;SDS011;10614;53.198;6.570;2023-04-01T01:31:09;4.90;;;2.80;;
20908;SDS011;10614;53.198;6.570;2023-04-01T01:33:25;6.55;;;3.33;;
20908;SDS011;10614;53.198;6.570;2023-04-01T01:35:41;7.80;;;3.50;;
20908;SDS011;10614;53.198;6.570;2023-04-01T01:37:49;7.80;;;3.17;;
20908;SDS011;10614;53.198;6.570;2023-04-01T01:39:55;5.82;;;2.72;;
20908;SDS011;10614;53.198;6.570;2023-04-01T01:42:00;5.57;;;3.03;;
20908;SDS011;10614;53.198;6.570;2023-04-01T01:44:06;5.63;;;3.05;;
20908;SDS011;10614;53.198;6.570;2023-04-01T01:46:10;6.38;;;3.45;;
20908;SDS011;10614;53.198;6.570;2023-04-01T01:48:16;5.70;;;3.28;;
20908;SDS011;10614;53.198;6.570;2023-04-01T01:50:19;6.30;;;3.35;;
20908;SDS011;10614;53.198;6.570;2023-04-01T01:52:24;6.80;;;3.28;;
20908;SDS011;10614;53.198;6.570;2023-04-01T01:54:28;6.38;;;3.63;;
20908;SDS011;10614;53.198;6.570;2023-04-01T01:56:30;6.72;;;3.85;;
20908;SDS011;10614;53.198;6.570;2023-04-01T01:58:34;7.97;;;4.20;;
20908;SDS011;10614;53.198;6.570;2023-04-01T02:00:41;7.57;;;4.10;;
20908;SDS011;10614;53.198;6.570;2023-04-01T02:02:49;8.52;;;3.80;;
20908;SDS011;10614;53.198;6.570;2023-04-01T02:04:52;8.45;;;3.60;;
20908;SDS011;10614;53.198;6.570;2023-04-01T02:06:55;7.10;;;4.10;;
20908;SDS011;10614;53.198;6.570;2023-04-01T02:09:03;7.25;;;4.03;;
20908;SDS011;10614;53.198;6.570;2023-04-01T02:11:08;6.65;;;3.42;;
20908;SDS011;10614;53.198;6.570;2023-04-01T02:13:13;8.45;;;4.13;;
20908;SDS011;10614;53.198;6.570;2023-04-01T02:15:20;7.70;;;3.80;;
20908;SDS011;10614;53.198;6.570;2023-04-01T02:17:24;7.45;;;3.80;;
20908;SDS011;10614;53.198;6.570;2023-04-01T02:19:33;5.65;;;3.10;;
20908;SDS011;10614;53.198;6.570;2023-04-01T02:21:40;5.47;;;3.15;;
20908;SDS011;10614;53.198;6.570;2023-04-01T02:23:44;8.27;;;4.22;;
20908;SDS011;10614;53.198;6.570;2023-04-01T02:25:49;5.53;;;3.03;;
20908;SDS011;10614;53.198;6.570;2023-04-01T02:27:52;5.60;;;3.25;;
20908;SDS011;10614;53.198;6.570;2023-04-01T02:29:56;7.17;;;3.50;;
20908;SDS011;10614;53.198;6.570;2023-04-01T02:31:58;6.40;;;3.55;;
20908;SDS011;10614;53.198;6.570;2023-04-01T02:34:01;5.25;;;2.78;;
20908;SDS011;10614;53.198;6.570;2023-04-01T02:36:04;5.97;;;3.00;;
20908;SDS011;10614;53.198;6.570;2023-04-01T02:38:06;6.05;;;2.90;;
20908;SDS011;10614;53.198;6.570;2023-04-01T02:40:10;6.28;;;3.20;;
20908;SDS011;10614;53.198;6.570;2023-04-01T02:42:14;6.43;;;3.40;;
20908;SDS011;10614;53.198;6.570;2023-04-01T02:44:16;7.40;;;3.55;;
20908;SDS011;10614;53.198;6.570;2023-04-01T02:46:17;5.57;;;2.58;;
20908;SDS011;10614;53.198;6.570;2023-04-01T02:48:19;6.10;;;3.33;;
20908;SDS011;10614;53.198;6.570;2023-04-01T02:50:21;8.05;;;3.25;;
20908;SDS011;10614;53.198;6.570;2023-04-01T02:52:23;5.47;;;3.13;;
20908;SDS011;10614;53.198;6.570;2023-04-01T02:54:25;6.97;;;3.33;;
20908;SDS011;10614;53.198;6.570;2023-04-01T02:56:27;7.00;;;3.38;;
20908;SDS011;10614;53.198;6.570;2023-04-01T02:58:30;6.82;;;3.70;;
20908;SDS011;10614;53.198;6.570;2023-04-01T03:00:32;5.85;;;3.15;;
20908;SDS011;10614;53.198;6.570;2023-04-01T03:02:34;5.40;;;3.10;;
20908;SDS011;10614;53.198;6.570;2023-04-01T03:04:36;6.60;;;3.38;;
20908;SDS011;10614;53.198;6.570;2023-04-01T03:06:38;6.05;;;3.00;;
20908;SDS011;10614;53.198;6.570;2023-04-01T03:08:40;6.40;;;3.30;;
20908;SDS011;10614;53.198;6.570;2023-04-01T03:10:42;5.93;;;3.53;;
20908;SDS011;10614;53.198;6.570;2023-04-01T03:12:44;6.57;;;3.60;;
20908;SDS011;10614;53.198;6.570;2023-04-01T03:14:49;7.43;;;3.53;;
20908;SDS011;10614;53.198;6.570;2023-04-01T03:16:51;5.85;;;3.40;;
20908;SDS011;10614;53.198;6.570;2023-04-01T03:18:53;6.68;;;3.53;;
20908;SDS011;10614;53.198;6.570;2023-04-01T03:20:56;8.70;;;3.80;;
20908;SDS011;10614;53.198;6.570;2023-04-01T03:22:58;8.63;;;4.00;;
20908;SDS011;10614;53.198;6.570;2023-04-01T03:25:00;7.40;;;4.22;;
20908;SDS011;10614;53.198;6.570;2023-04-01T03:27:02;5.88;;;3.20;;
20908;SDS011;10614;53.198;6.570;2023-04-01T03:29:04;10.48;;;5.03;;
20908;SDS011;10614;53.198;6.570;2023-04-01T03:31:08;8.13;;;4.32;;
20908;SDS011;10614;53.198;6.570;2023-04-01T03:33:09;9.13;;;4.40;;
20908;SDS011;10614;53.198;6.570;2023-04-01T03:35:11;8.73;;;4.45;;
20908;SDS011;10614;53.198;6.570;2023-04-01T03:37:13;8.55;;;4.93;;
20908;SDS011;10614;53.198;6.570;2023-04-01T03:39:15;10.35;;;5.22;;
20908;SDS011;10614;53.198;6.570;2023-04-01T03:41:19;9.30;;;4.57;;
20908;SDS011;10614;53.198;6.570;2023-04-01T03:43:21;9.32;;;4.32;;
20908;SDS011;10614;53.198;6.570;2023-04-01T03:45:23;7.75;;;4.22;;
20908;SDS011;10614;53.198;6.570;2023-04-01T03:47:26;10.02;;;4.40;;
20908;SDS011;10614;53.198;6.570;2023-04-01T03:49:29;10.15;;;4.82;;
20908;SDS011;10614;53.198;6.570;2023-04-01T03:51:32;10.85;;;5.35;;
20908;SDS011;10614;53.198;6.570;2023-04-01T03:53:35;9.25;;;4.93;;
20908;SDS011;10614;53.198;6.570;2023-04-01T03:55:37;9.77;;;4.95;;
20908;SDS011;10614;53.198;6.570;2023-04-01T03:57:40;10.30;;;5.22;;
20908;SDS011;10614;53.198;6.570;2023-04-01T03:59:42;11.13;;;4.90;;
20908;SDS011;10614;53.198;6.570;2023-04-01T04:01:43;9.30;;;4.78;;
20908;SDS011;10614;53.198;6.570;2023-04-01T04:03:49;9.93;;;5.03;;
20908;SDS011;10614;53.198;6.570;2023-04-01T04:05:51;10.40;;;5.90;;
20908;SDS011;10614;53.198;6.570;2023-04-01T04:07:54;10.55;;;5.15;;
20908;SDS011;10614;53.198;6.570;2023-04-01T04:09:55;11.90;;;5.13;;
20908;SDS011;10614;53.198;6.570;2023-04-01T04:11:57;11.90;;;6.03;;
20908;SDS011;10614;53.198;6.570;2023-04-01T04:13:59;10.25;;;5.30;;
20908;SDS011;10614;53.198;6.570;2023-04-01T04:16:01;8.77;;;4.75;;
20908;SDS011;10614;53.198;6.570;2023-04-01T04:18:03;9.13;;;4.90;;
20908;SDS011;10614;53.198;6.570;2023-04-01T04:20:07;8.48;;;4.47;;
20908;SDS011;10614;53.198;6.570;2023-04-01T04:22:10;10.77;;;4.97;;
20908;SDS011;10614;53.198;6.570;2023-04-01T04:24:12;10.43;;;5.32;;
20908;SDS011;10614;53.198;6.570;2023-04-01T04:26:14;9.75;;;5.35;;
20908;SDS011;10614;53.198;6.570;2023-04-01T04:28:16;9.60;;;4.95;;
20908;SDS011;10614;53.198;6.570;2023-04-01T04:30:18;10.50;;;4.72;;
20908;SDS011;10614;53.198;6.570;2023-04-01T04:32:20;12.10;;;5.57;;
20908;SDS011;10614;53.198;6.570;2023-04-01T04:34:21;9.27;;;5.13;;
20908;SDS011;10614;53.198;6.570;2023-04-01T04:36:25;11.07;;;5.82;;
20908;SDS011;10614;53.198;6.570;2023-04-01T04:38:27;9.30;;;5.00;;
20908;SDS011;10614;53.198;6.570;2023-04-01T04:40:28;9.88;;;4.97;;
20908;SDS011;10614;53.198;6.570;2023-04-01T04:42:30;10.85;;;5.30;;
20908;SDS011;10614;53.198;6.570;2023-04-01T04:44:32;10.52;;;5.07;;
20908;SDS011;10614;53.198;6.570;2023-04-01T04:46:33;10.68;;;5.47;;
20908;SDS011;10614;53.198;6.570;2023-04-01T04:48:37;9.95;;;5.45;;
20908;SDS011;10614;53.198;6.570;2023-04-01T04:50:39;9.68;;;4.88;;
20908;SDS011;10614;53.198;6.570;2023-04-01T04:52:43;10.10;;;5.80;;
20908;SDS011;10614;53.198;6.570;2023-04-01T04:54:45;9.45;;;5.30;;
20908;SDS011;10614;53.198;6.570;2023-04-01T04:56:47;9.73;;;5.32;;
20908;SDS011;10614;53.198;6.570;2023-04-01T04:58:49;9.00;;;4.40;;
20908;SDS011;10614;53.198;6.570;2023-04-01T05:00:50;9.02;;;5.10;;
20908;SDS011;10614;53.198;6.570;2023-04-01T05:02:52;12.88;;;6.47;;
20908;SDS011;10614;53.198;6.570;2023-04-01T05:04:56;10.38;;;5.25;;
20908;SDS011;10614;53.198;6.570;2023-04-01T05:06:58;9.73;;;4.63;;
20908;SDS011;10614;53.198;6.570;2023-04-01T05:09:01;10.05;;;5.18;;
20908;SDS011;10614;53.198;6.570;2023-04-01T05:11:03;11.77;;;6.00;;
20908;SDS011;10614;53.198;6.570;2023-04-01T05:13:05;10.27;;;5.65;;
20908;SDS011;10614;53.198;6.570;2023-04-01T05:15:06;9.50;;;5.10;;
20908;SDS011;10614;53.198;6.570;2023-04-01T05:17:09;10.77;;;5.15;;
20908;SDS011;10614;53.198;6.570;2023-04-01T05:19:12;9.25;;;4.93;;
20908;SDS011;10614;53.198;6.570;2023-04-01T05:21:14;10.60;;;5.78;;
20908;SDS011;10614;53.198;6.570;2023-04-01T05:23:16;9.95;;;5.25;;
20908;SDS011;10614;53.198;6.570;2023-04-01T05:25:22;10.27;;;4.90;;
20908;SDS011;10614;53.198;6.570;2023-04-01T05:27:24;9.80;;;5.07;;
20908;SDS011;10614;53.198;6.570;2023-04-01T05:29:25;9.20;;;5.00;;
20908;SDS011;10614;53.198;6.570;2023-04-01T05:31:27;9.60;;;5.30;;
20908;SDS011;10614;53.198;6.570;2023-04-01T05:33:29;10.30;;;5.18;;
20908;SDS011;10614;53.198;6.570;2023-04-01T05:35:31;10.75;;;5.18;;
20908;SDS011;10614;53.198;6.570;2023-04-01T05:37:33;9.77;;;5.00;;
20908;SDS011;10614;53.198;6.570;2023-04-01T05:39:36;8.15;;;4.47;;
20908;SDS011;10614;53.198;6.570;2023-04-01T05:41:39;9.15;;;5.10;;
20908;SDS011;10614;53.198;6.570;2023-04-01T05:43:41;9.52;;;4.57;;
20908;SDS011;10614;53.198;6.570;2023-04-01T05:45:44;8.32;;;4.50;;
20908;SDS011;10614;53.198;6.570;2023-04-01T05:47:45;10.75;;;5.47;;
20908;SDS011;10614;53.198;6.570;2023-04-01T05:49:47;9.27;;;4.70;;
20908;SDS011;10614;53.198;6.570;2023-04-01T05:51:49;8.68;;;4.45;;
20908;SDS011;10614;53.198;6.570;2023-04-01T05:53:51;8.60;;;4.38;;
20908;SDS011;10614;53.198;6.570;2023-04-01T05:55:53;8.55;;;4.47;;
20908;SDS011;10614;53.198;6.570;2023-04-01T05:57:56;9.98;;;4.78;;
20908;SDS011;10614;53.198;6.570;2023-04-01T05:59:58;8.77;;;4.53;;
20908;SDS011;10614;53.198;6.570;2023-04-01T06:02:00;9.43;;;4.70;;
20908;SDS011;10614;53.198;6.570;2023-04-01T06:04:02;10.13;;;4.95;;
20908;SDS011;10614;53.198;6.570;2023-04-01T06:06:04;9.15;;;4.70;;
20908;SDS011;10614;53.198;6.570;2023-04-01T06:08:15;9.95;;;4.40;;
20908;SDS011;10614;53.198;6.570;2023-04-01T06:10:20;8.65;;;4.57;;
20908;SDS011;10614;53.198;6.570;2023-04-01T06:12:34;8.88;;;4.60;;
20908;SDS011;10614;53.198;6.570;2023-04-01T06:14:49;9.10;;;4.88;;
20908;SDS011;10614;53.198;6.570;2023-04-01T06:17:04;8.63;;;4.50;;
20908;SDS011;10614;53.198;6.570;2023-04-01T06:19:20;10.45;;;4.80;;
20908;SDS011;10614;53.198;6.570;2023-04-01T06:24:08;8.02;;;4.22;;
20908;SDS011;10614;53.198;6.570;2023-04-01T06:26:26;11.82;;;5.32;;
20908;SDS011;10614;53.198;6.570;2023-04-01T06:28:44;11.67;;;5.77;;
20908;SDS011;10614;53.198;6.570;2023-04-01T06:31:08;9.82;;;5.15;;
20908;SDS011;10614;53.198;6.570;2023-04-01T06:33:25;10.95;;;5.68;;
20908;SDS011;10614;53.198;6.570;2023-04-01T06:35:50;11.27;;;5.57;;
20908;SDS011;10614;53.198;6.570;2023-04-01T06:38:06;10.77;;;5.65;;
20908;SDS011;10614;53.198;6.570;2023-04-01T06:40:37;10.63;;;5.32;;
20908;SDS011;10614;53.198;6.570;2023-04-01T06:42:54;11.37;;;5.73;;
20908;SDS011;10614;53.198;6.570;2023-04-01T06:45:08;13.80;;;6.25;;
20908;SDS011;10614;53.198;6.570;2023-04-01T06:47:25;16.77;;;8.82;;
20908;SDS011;10614;53.198;6.570;2023-04-01T06:49:41;13.73;;;7.60;;
20908;SDS011;10614;53.198;6.570;2023-04-01T06:51:52;13.00;;;6.45;;
20908;SDS011;10614;53.198;6.570;2023-04-01T06:54:03;16.08;;;7.38;;
20908;SDS011;10614;53.198;6.570;2023-04-01T06:56:10;12.23;;;6.43;;
20908;SDS011;10614;53.198;6.570;2023-04-01T06:58:19;13.05;;;6.75;;
20908;SDS011;10614;53.198;6.570;2023-04-01T07:00:26;16.70;;;8.50;;
20908;SDS011;10614;53.198;6.570;2023-04-01T07:02:34;13.77;;;6.68;;
20908;SDS011;10614;53.198;6.570;2023-04-01T07:04:42;14.88;;;7.38;;
20908;SDS011;10614;53.198;6.570;2023-04-01T07:06:48;12.38;;;7.03;;
20908;SDS011;10614;53.198;6.570;2023-04-01T07:08:54;17.27;;;8.70;;
20908;SDS011;10614;53.198;6.570;2023-04-01T07:11:02;13.40;;;6.72;;
20908;SDS011;10614;53.198;6.570;2023-04-01T07:13:05;15.88;;;7.78;;
20908;SDS011;10614;53.198;6.570;2023-04-01T07:15:17;14.15;;;7.38;;
20908;SDS011;10614;53.198;6.570;2023-04-01T07:17:21;13.77;;;7.43;;
20908;SDS011;10614;53.198;6.570;2023-04-01T07:19:29;15.57;;;7.75;;
20908;SDS011;10614;53.198;6.570;2023-04-01T07:21:35;15.27;;;7.35;;
20908;SDS011;10614;53.198;6.570;2023-04-01T07:23:42;15.02;;;7.47;;
20908;SDS011;10614;53.198;6.570;2023-04-01T07:25:47;13.88;;;7.25;;
20908;SDS011;10614;53.198;6.570;2023-04-01T07:27:56;13.43;;;6.90;;
20908;SDS011;10614;53.198;6.570;2023-04-01T07:30:06;12.20;;;6.88;;
20908;SDS011;10614;53.198;6.570;2023-04-01T07:32:20;14.88;;;7.47;;
20908;SDS011;10614;53.198;6.570;2023-04-01T07:34:31;14.48;;;7.22;;
20908;SDS011;10614;53.198;6.570;2023-04-01T07:36:42;15.32;;;7.50;;
20908;SDS011;10614;53.198;6.570;2023-04-01T07:38:48;14.02;;;7.68;;
20908;SDS011;10614;53.198;6.570;2023-04-01T07:41:03;14.00;;;7.43;;
20908;SDS011;10614;53.198;6.570;2023-04-01T07:43:21;12.95;;;6.40;;
20908;SDS011;10614;53.198;6.570;2023-04-01T07:45:34;12.57;;;6.63;;
20908;SDS011;10614;53.198;6.570;2023-04-01T07:47:45;14.10;;;6.90;;
20908;SDS011;10614;53.198;6.570;2023-04-01T07:50:05;14.20;;;7.07;;
20908;SDS011;10614;53.198;6.570;2023-04-01T07:52:15;13.40;;;7.05;;
20908;SDS011;10614;53.198;6.570;2023-04-01T07:54:28;12.63;;;6.50;;
20908;SDS011;10614;53.198;6.570;2023-04-01T07:56:38;13.45;;;6.63;;
20908;SDS011;10614;53.198;6.570;2023-04-01T07:58:48;13.52;;;6.97;;
20908;SDS011;10614;53.198;6.570;2023-04-01T08:01:03;11.80;;;6.53;;
20908;SDS011;10614;53.198;6.570;2023-04-01T08:03:16;13.10;;;6.00;;
20908;SDS011;10614;53.198;6.570;2023-04-01T08:05:32;14.18;;;7.20;;
20908;SDS011;10614;53.198;6.570;2023-04-01T08:07:44;12.25;;;6.28;;
20908;SDS011;10614;53.198;6.570;2023-04-01T08:09:52;15.63;;;7.50;;
20908;SDS011;10614;53.198;6.570;2023-04-01T08:12:07;15.02;;;6.65;;
20908;SDS011;10614;53.198;6.570;2023-04-01T08:14:21;13.38;;;6.82;;
20908;SDS011;10614;53.198;6.570;2023-04-01T08:16:32;14.23;;;6.78;;
20908;SDS011;10614;53.198;6.570;2023-04-01T08:18:44;13.25;;;7.13;;
20908;SDS011;10614;53.198;6.570;2023-04-01T08:20:55;13.88;;;6.57;;
20908;SDS011;10614;53.198;6.570;2023-04-01T08:23:02;13.52;;;6.57;;
20908;SDS011;10614;53.198;6.570;2023-04-01T08:25:10;12.55;;;7.00;;
20908;SDS011;10614;53.198;6.570;2023-04-01T08:27:20;13.93;;;6.90;;
20908;SDS011;10614;53.198;6.570;2023-04-01T08:29:27;15.55;;;6.65;;
20908;SDS011;10614;53.198;6.570;2023-04-01T08:31:38;14.70;;;6.65;;
20908;SDS011;10614;53.198;6.570;2023-04-01T08:33:49;14.90;;;6.80;;
20908;SDS011;10614;53.198;6.570;2023-04-01T08:35:56;12.20;;;5.95;;
20908;SDS011;10614;53.198;6.570;2023-04-01T08:38:05;13.68;;;6.63;;
20908;SDS011;10614;53.198;6.570;2023-04-01T08:40:17;11.20;;;5.93;;
20908;SDS011;10614;53.198;6.570;2023-04-01T08:42:48;13.07;;;6.13;;
20908;SDS011;10614;53.198;6.570;2023-04-01T08:45:07;12.38;;;5.90;;
20908;SDS011;10614;53.198;6.570;2023-04-01T08:47:20;11.40;;;5.72;;
20908;SDS011;10614;53.198;6.570;2023-04-01T08:49:39;13.80;;;5.93;;
20908;SDS011;10614;53.198;6.570;2023-04-01T08:57:06;11.23;;;5.75;;
20908;SDS011;10614;53.198;6.570;2023-04-01T08:59:23;10.32;;;5.55;;
20908;SDS011;10614;53.198;6.570;2023-04-01T09:01:52;11.27;;;5.70;;
20908;SDS011;10614;53.198;6.570;2023-04-01T09:04:13;11.82;;;5.55;;
20908;SDS011;10614;53.198;6.570;2023-04-01T09:06:31;12.35;;;5.95;;
20908;SDS011;10614;53.198;6.570;2023-04-01T09:08:47;11.73;;;5.80;;
20908;SDS011;10614;53.198;6.570;2023-04-01T09:11:05;9.05;;;4.25;;
20908;SDS011;10614;53.198;6.570;2023-04-01T09:13:27;9.88;;;4.68;;
20908;SDS011;10614;53.198;6.570;2023-04-01T09:15:54;8.80;;;4.22;;
20908;SDS011;10614;53.198;6.570;2023-04-01T09:20:50;7.43;;;4.03;;
20908;SDS011;10614;53.198;6.570;2023-04-01T09:23:14;8.20;;;3.60;;
20908;SDS011;10614;53.198;6.570;2023-04-01T09:28:03;6.38;;;2.80;;
20908;SDS011;10614;53.198;6.570;2023-04-01T09:32:42;4.47;;;2.30;;
20908;SDS011;10614;53.198;6.570;2023-04-01T09:35:03;4.80;;;2.33;;
20908;SDS011;10614;53.198;6.570;2023-04-01T09:37:21;6.07;;;2.65;;
20908;SDS011;10614;53.198;6.570;2023-04-01T09:39:36;4.90;;;2.17;;
20908;SDS011;10614;53.198;6.570;2023-04-01T09:41:40;4.57;;;2.42;;
20908;SDS011;10614;53.198;6.570;2023-04-01T09:44:02;4.32;;;2.00;;
20908;SDS011;10614;53.198;6.570;2023-04-01T09:46:10;3.03;;;1.50;;
20908;SDS011;10614;53.198;6.570;2023-04-01T09:51:09;2.80;;;1.60;;
20908;SDS011;10614;53.198;6.570;2023-04-01T09:53:35;4.40;;;2.15;;
20908;SDS011;10614;53.198;6.570;2023-04-01T09:56:12;3.85;;;2.05;;
20908;SDS011;10614;53.198;6.570;2023-04-01T10:04:04;6.50;;;2.65;;
20908;SDS011;10614;53.198;6.570;2023-04-01T10:12:29;3.47;;;1.60;;
20908;SDS011;10614;53.198;6.570;2023-04-01T10:15:13;2.97;;;1.50;;
20908;SDS011;10614;53.198;6.570;2023-04-01T10:17:45;3.92;;;1.83;;
20908;SDS011;10614;53.198;6.570;2023-04-01T10:20:14;7.18;;;2.50;;
20908;SDS011;10614;53.198;6.570;2023-04-01T10:22:41;3.05;;;1.83;;
20908;SDS011;10614;53.198;6.570;2023-04-01T10:25:15;2.35;;;1.63;;
20908;SDS011;10614;53.198;6.570;2023-04-01T10:27:39;2.90;;;1.38;;
20908;SDS011;10614;53.198;6.570;2023-04-01T10:35:30;2.45;;;1.42;;
20908;SDS011;10614;53.198;6.570;2023-04-01T10:40:34;2.83;;;1.27;;
20908;SDS011;10614;53.198;6.570;2023-04-01T10:48:18;1.33;;;1.00;;
20908;SDS011;10614;53.198;6.570;2023-04-01T11:07:37;2.95;;;1.50;;
20908;SDS011;10614;53.198;6.570;2023-04-01T11:24:01;2.03;;;1.20;;
20908;SDS011;10614;53.198;6.570;2023-04-01T11:26:25;3.88;;;2.03;;
20908;SDS011;10614;53.198;6.570;2023-04-01T11:28:49;2.70;;;1.40;;
20908;SDS011;10614;53.198;6.570;2023-04-01T11:31:10;4.63;;;2.03;;
20908;SDS011;10614;53.198;6.570;2023-04-01T11:33:26;2.67;;;1.42;;
20908;SDS011;10614;53.198;6.570;2023-04-01T11:35:43;2.97;;;1.60;;
20908;SDS011;10614;53.198;6.570;2023-04-01T11:38:22;4.00;;;1.70;;
20908;SDS011;10614;53.198;6.570;2023-04-01T11:40:39;5.40;;;1.92;;
20908;SDS011;10614;53.198;6.570;2023-04-01T11:42:48;2.30;;;1.50;;
20908;SDS011;10614;53.198;6.570;2023-04-01T11:44:57;4.43;;;1.55;;
20908;SDS011;10614;53.198;6.570;2023-04-01T11:47:22;5.72;;;1.40;;
20908;SDS011;10614;53.198;6.570;2023-04-01T11:49:41;2.78;;;1.40;;
20908;SDS011;10614;53.198;6.570;2023-04-01T11:51:59;3.35;;;1.25;;
20908;SDS011;10614;53.198;6.570;2023-04-01T11:54:11;1.50;;;1.10;;
20908;SDS011;10614;53.198;6.570;2023-04-01T11:56:30;2.15;;;1.10;;
20908;SDS011;10614;53.198;6.570;2023-04-01T11:58:56;1.58;;;0.85;;
20908;SDS011;10614;53.198;6.570;2023-04-01T12:01:17;1.58;;;1.10;;
20908;SDS011;10614;53.198;6.570;2023-04-01T12:03:31;1.45;;;0.93;;
20908;SDS011;10614;53.198;6.570;2023-04-01T12:05:48;1.60;;;0.90;;
20908;SDS011;10614;53.198;6.570;2023-04-01T12:10:19;2.10;;;1.20;;
20908;SDS011;10614;53.198;6.570;2023-04-01T12:12:25;1.70;;;0.98;;
20908;SDS011;10614;53.198;6.570;2023-04-01T12:14:41;4.32;;;0.90;;
20908;SDS011;10614;53.198;6.570;2023-04-01T12:16:54;1.58;;;1.00;;
20908;SDS011;10614;53.198;6.570;2023-04-01T12:19:04;4.57;;;1.27;;
20908;SDS011;10614;53.198;6.570;2023-04-01T12:21:21;1.55;;;1.00;;
20908;SDS011;10614;53.198;6.570;2023-04-01T12:23:38;2.35;;;1.23;;
20908;SDS011;10614;53.198;6.570;2023-04-01T12:26:00;5.07;;;1.60;;
20908;SDS011;10614;53.198;6.570;2023-04-01T12:28:20;2.30;;;1.15;;
20908;SDS011;10614;53.198;6.570;2023-04-01T12:30:33;2.00;;;1.17;;
20908;SDS011;10614;53.198;6.570;2023-04-01T12:32:45;3.35;;;1.75;;
20908;SDS011;10614;53.198;6.570;2023-04-01T12:34:58;3.00;;;1.75;;
20908;SDS011;10614;53.198;6.570;2023-04-01T12:37:15;1.73;;;0.93;;
20908;SDS011;10614;53.198;6.570;2023-04-01T12:39:32;1.95;;;1.23;;
20908;SDS011;10614;53.198;6.570;2023-04-01T12:41:46;3.83;;;1.35;;
20908;SDS011;10614;53.198;6.570;2023-04-01T12:44:04;1.48;;;1.00;;
20908;SDS011;10614;53.198;6.570;2023-04-01T12:46:19;5.28;;;1.23;;
20908;SDS011;10614;53.198;6.570;2023-04-01T12:51:09;2.20;;;1.10;;
20908;SDS011;10614;53.198;6.570;2023-04-01T12:53:26;2.00;;;1.13;;
20908;SDS011;10614;53.198;6.570;2023-04-01T12:55:43;2.97;;;1.02;;
20908;SDS011;10614;53.198;6.570;2023-04-01T13:00:28;2.38;;;1.42;;
20908;SDS011;10614;53.198;6.570;2023-04-01T13:02:45;1.40;;;1.00;;
20908;SDS011;10614;53.198;6.570;2023-04-01T13:07:45;3.05;;;1.30;;
20908;SDS011;10614;53.198;6.570;2023-04-01T13:10:01;2.83;;;1.50;;
20908;SDS011;10614;53.198;6.570;2023-04-01T13:12:18;2.25;;;1.20;;
20908;SDS011;10614;53.198;6.570;2023-04-01T13:14:35;2.85;;;1.30;;
20908;SDS011;10614;53.198;6.570;2023-04-01T13:17:02;2.30;;;1.35;;
20908;SDS011;10614;53.198;6.570;2023-04-01T13:19:13;2.88;;;1.40;;
20908;SDS011;10614;53.198;6.570;2023-04-01T13:21:25;1.92;;;1.23;;
20908;SDS011;10614;53.198;6.570;2023-04-01T13:23:52;3.90;;;1.95;;
20908;SDS011;10614;53.198;6.570;2023-04-01T13:26:05;1.42;;;0.85;;
20908;SDS011;10614;53.198;6.570;2023-04-01T13:28:17;2.70;;;1.10;;
20908;SDS011;10614;53.198;6.570;2023-04-01T13:30:26;2.33;;;1.30;;
20908;SDS011;10614;53.198;6.570;2023-04-01T13:32:34;3.15;;;1.60;;
20908;SDS011;10614;53.198;6.570;2023-04-01T13:34:48;2.13;;;1.20;;
20908;SDS011;10614;53.198;6.570;2023-04-01T13:37:04;1.50;;;0.90;;
20908;SDS011;10614;53.198;6.570;2023-04-01T13:39:26;1.70;;;1.10;;
20908;SDS011;10614;53.198;6.570;2023-04-01T13:41:48;2.53;;;1.35;;
20908;SDS011;10614;53.198;6.570;2023-04-01T13:44:06;4.35;;;1.75;;
20908;SDS011;10614;53.198;6.570;2023-04-01T13:46:18;1.88;;;1.25;;
20908;SDS011;10614;53.198;6.570;2023-04-01T13:48:51;1.65;;;1.13;;
20908;SDS011;10614;53.198;6.570;2023-04-01T13:51:24;2.35;;;1.30;;
20908;SDS011;10614;53.198;6.570;2023-04-01T13:53:47;1.90;;;1.20;;
20908;SDS011;10614;53.198;6.570;2023-04-01T13:56:09;1.95;;;1.20;;
20908;SDS011;10614;53.198;6.570;2023-04-01T13:58:27;2.03;;;1.05;;
20908;SDS011;10614;53.198;6.570;2023-04-01T14:00:56;2.13;;;1.30;;
20908;SDS011;10614;53.198;6.570;2023-04-01T14:03:12;2.05;;;1.27;;
20908;SDS011;10614;53.198;6.570;2023-04-01T14:05:27;3.13;;;1.23;;
20908;SDS011;10614;53.198;6.570;2023-04-01T14:07:56;2.08;;;1.30;;
20908;SDS011;10614;53.198;6.570;2023-04-01T14:10:13;2.00;;;1.17;;
20908;SDS011;10614;53.198;6.570;2023-04-01T14:12:26;2.25;;;1.15;;
20908;SDS011;10614;53.198;6.570;2023-04-01T14:14:36;2.45;;;0.95;;
20908;SDS011;10614;53.198;6.570;2023-04-01T14:19:24;1.15;;;0.75;;
20908;SDS011;10614;53.198;6.570;2023-04-01T14:21:41;2.67;;;0.90;;
20908;SDS011;10614;53.198;6.570;2023-04-01T14:23:56;2.67;;;1.33;;
20908;SDS011;10614;53.198;6.570;2023-04-01T14:26:15;1.35;;;0.90;;
20908;SDS011;10614;53.198;6.570;2023-04-01T14:28:29;1.40;;;0.95;;